Time;durP1;ratioP1;P1;durP2;ratioP2;P2;SDS_P1;SDS_P2;PMS_P1;PMS_P2;Temp;Humidity;BMP_temperature;BMP_pressure;BME280_temperature;BME280_humidity;BME280_pressure;Samples;Min_cycle;Max_cycle;Signal;HPM_P1;HPM_P2
2024/04/05 00:00:58;;;;;;;29.63;3.38;;;;;;;;;;5033303;28;20132;-77
2024/04/05 00:03:24;;;;;;;23.58;3.65;;;;;;;;;;5032607;28;20049;-77
2024/04/05 00:05:50;;;;;;;25.45;4.05;;;;;;;;;;5032993;28;20133;-77
2024/04/05 00:08:16;;;;;;;26.85;4.05;;;;;;;;;;5032024;28;20044;-77
2024/04/05 00:10:42;;;;;;;23.65;3.60;;;;;;;;;;5017629;28;20099;-77
2024/04/05 00:13:07;;;;;;;31.02;3.70;;;;;;;;;;5033972;28;20045;-77
2024/04/05 00:15:38;;;;;;;31.25;4.22;;;;;;;;;;5035371;28;20037;-77
2024/04/05 00:18:04;;;;;;;19.80;3.88;;;;;;;;;;5035032;28;20044;-77
2024/04/05 00:20:30;;;;;;;32.95;4.28;;;;;;;;;;5034282;28;20041;-77
2024/04/05 00:22:55;;;;;;;30.50;4.43;;;;;;;;;;5017952;28;20037;-77
2024/04/05 00:25:21;;;;;;;33.65;4.30;;;;;;;;;;5034430;28;20127;-77
2024/04/05 00:27:47;;;;;;;30.10;4.47;;;;;;;;;;5057420;28;20033;-77
2024/04/05 00:30:13;;;;;;;26.75;4.82;;;;;;;;;;5015900;28;20049;-77
2024/04/05 00:32:39;;;;;;;30.67;4.90;;;;;;;;;;5019046;28;20123;-77
2024/04/05 00:35:05;;;;;;;37.85;5.47;;;;;;;;;;5020208;28;20112;-77
2024/04/05 00:37:30;;;;;;;35.83;4.70;;;;;;;;;;5019492;28;20506;-77
2024/04/05 00:39:56;;;;;;;33.72;5.05;;;;;;;;;;5019843;28;20037;-78
2024/04/05 00:42:22;;;;;;;43.95;5.18;;;;;;;;;;5019294;28;20041;-77
2024/04/05 00:44:48;;;;;;;29.60;5.03;;;;;;;;;;5035966;28;20071;-77
2024/04/05 00:47:13;;;;;;;37.75;5.47;;;;;;;;;;5035848;28;20045;-77
2024/04/05 00:49:39;;;;;;;30.60;5.78;;;;;;;;;;5036078;28;20126;-77
2024/04/05 00:52:05;;;;;;;35.42;5.10;;;;;;;;;;5037138;28;20095;-77
2024/04/05 00:54:32;;;;;;;42.22;6.30;;;;;;;;;;5021172;28;20110;-77
2024/04/05 00:56:58;;;;;;;25.52;5.05;;;;;;;;;;5020904;28;20045;-77
2024/04/05 00:59:26;;;;;;;43.72;5.13;;;;;;;;;;5036884;28;20052;-77
2024/04/05 01:01:52;;;;;;;39.47;5.77;;;;;;;;;;5036818;28;20056;-77
2024/04/05 01:04:18;;;;;;;29.63;4.60;;;;;;;;;;5020403;28;20044;-77
2024/04/05 01:06:44;;;;;;;35.47;4.95;;;;;;;;;;5036043;28;20052;-77
2024/04/05 01:09:11;;;;;;;36.08;5.38;;;;;;;;;;5036991;28;20048;-77
2024/04/05 01:11:37;;;;;;;31.67;5.53;;;;;;;;;;5021036;28;20037;-77
2024/04/05 01:14:03;;;;;;;32.90;5.35;;;;;;;;;;5020646;28;20494;-78
2024/04/05 01:16:28;;;;;;;34.58;5.80;;;;;;;;;;5036802;28;20040;-77
2024/04/05 01:18:56;;;;;;;37.08;5.32;;;;;;;;;;5020907;28;20145;-77
2024/04/05 01:21:23;;;;;;;31.50;4.53;;;;;;;;;;5036433;28;20365;-77
2024/04/05 01:23:49;;;;;;;32.72;4.95;;;;;;;;;;5037101;28;20093;-77
2024/04/05 01:26:15;;;;;;;37.60;5.15;;;;;;;;;;5042870;28;20049;-77
2024/04/05 01:28:41;;;;;;;33.17;4.90;;;;;;;;;;5070412;28;20039;-77
2024/04/05 01:31:06;;;;;;;27.90;4.70;;;;;;;;;;5036216;28;20048;-78
2024/04/05 01:33:32;;;;;;;26.23;4.20;;;;;;;;;;5036804;28;20134;-77
2024/04/05 01:35:58;;;;;;;30.23;4.32;;;;;;;;;;5020327;28;20111;-77
2024/04/05 01:38:24;;;;;;;24.95;4.15;;;;;;;;;;5036757;28;20048;-77
2024/04/05 01:40:49;;;;;;;18.05;3.58;;;;;;;;;;5020092;28;20044;-78
2024/04/05 01:43:15;;;;;;;21.67;5.00;;;;;;;;;;5034843;28;20052;-77
2024/04/05 01:45:41;;;;;;;19.45;3.60;;;;;;;;;;5036518;28;20061;-77
2024/04/05 01:48:07;;;;;;;20.27;4.45;;;;;;;;;;5019534;28;20049;-77
2024/04/05 01:50:33;;;;;;;19.45;3.80;;;;;;;;;;5036276;28;20099;-77
2024/04/05 01:52:59;;;;;;;18.45;3.72;;;;;;;;;;5035320;28;20045;-77
2024/04/05 01:55:25;;;;;;;21.40;4.63;;;;;;;;;;5017772;28;20047;-77
2024/04/05 01:57:50;;;;;;;17.20;3.92;;;;;;;;;;5035427;28;20079;-77
2024/04/05 02:00:16;;;;;;;19.10;3.53;;;;;;;;;;5018529;28;20040;-77
2024/04/05 02:02:42;;;;;;;21.63;4.00;;;;;;;;;;5036215;28;20045;-77
2024/04/05 02:05:08;;;;;;;25.83;4.68;;;;;;;;;;5035825;28;20475;-77
2024/04/05 02:07:33;;;;;;;22.88;4.40;;;;;;;;;;5036014;28;20043;-77
2024/04/05 02:09:59;;;;;;;19.20;3.95;;;;;;;;;;5019360;28;20041;-77
2024/04/05 02:12:28;;;;;;;28.58;4.45;;;;;;;;;;5035489;28;20483;-77
2024/04/05 02:14:54;;;;;;;18.95;4.75;;;;;;;;;;5036154;28;20045;-77
2024/04/05 02:17:19;;;;;;;16.63;3.50;;;;;;;;;;5035425;28;20052;-77
2024/04/05 02:19:45;;;;;;;20.13;3.47;;;;;;;;;;5036037;28;20041;-77
2024/04/05 02:22:11;;;;;;;27.33;4.43;;;;;;;;;;5035191;28;20045;-77
2024/04/05 02:24:37;;;;;;;21.80;3.90;;;;;;;;;;5035857;28;20041;-77
2024/04/05 02:27:03;;;;;;;22.52;3.65;;;;;;;;;;5060953;28;20471;-77
2024/04/05 02:29:29;;;;;;;25.65;4.90;;;;;;;;;;5015616;28;20048;-77
2024/04/05 02:31:55;;;;;;;19.38;3.50;;;;;;;;;;5015889;28;20041;-77
2024/04/05 02:34:21;;;;;;;23.63;3.53;;;;;;;;;;5015388;28;20128;-76
2024/04/05 02:36:49;;;;;;;21.48;4.30;;;;;;;;;;5016003;28;20037;-77
2024/04/05 02:39:15;;;;;;;21.40;3.65;;;;;;;;;;5015414;28;20049;-77
2024/04/05 02:41:46;;;;;;;21.15;3.55;;;;;;;;;;5016286;28;20124;-77
2024/04/05 02:44:13;;;;;;;18.83;3.47;;;;;;;;;;5016018;28;20042;-77
2024/04/05 02:46:39;;;;;;;23.42;3.70;;;;;;;;;;5015948;28;20087;-77
2024/04/05 02:49:05;;;;;;;20.63;3.75;;;;;;;;;;5016648;28;20059;-77
2024/04/05 02:51:31;;;;;;;18.63;3.78;;;;;;;;;;5015709;28;20075;-77
2024/04/05 02:53:57;;;;;;;22.15;3.45;;;;;;;;;;5015790;28;20033;-77
2024/04/05 02:56:23;;;;;;;24.98;4.10;;;;;;;;;;5015678;28;20046;-77
2024/04/05 02:58:48;;;;;;;21.75;4.05;;;;;;;;;;5015252;28;20037;-77
2024/04/05 03:01:14;;;;;;;21.20;4.22;;;;;;;;;;4999305;28;20046;-77
2024/04/05 03:03:40;;;;;;;25.70;4.55;;;;;;;;;;5014938;28;20037;-78
2024/04/05 03:06:06;;;;;;;17.00;3.70;;;;;;;;;;5013760;28;20048;-77
2024/04/05 03:08:32;;;;;;;22.42;4.10;;;;;;;;;;5013822;28;20048;-77
2024/04/05 03:10:58;;;;;;;18.13;3.70;;;;;;;;;;5030374;28;20114;-77
2024/04/05 03:13:24;;;;;;;21.60;3.85;;;;;;;;;;5029860;28;20539;-77
2024/04/05 03:15:50;;;;;;;21.58;4.40;;;;;;;;;;4997396;28;20041;-77
2024/04/05 03:18:16;;;;;;;21.35;3.80;;;;;;;;;;5013368;28;20076;-77
2024/04/05 03:20:42;;;;;;;21.52;4.30;;;;;;;;;;5046470;28;20041;-77
2024/04/05 03:23:10;;;;;;;23.92;4.53;;;;;;;;;;5013257;28;20061;-77
2024/04/05 03:25:39;;;;;;;25.67;4.07;;;;;;;;;;5019165;28;20037;-77
2024/04/05 03:28:05;;;;;;;;;;;;;;;;;;5020397;28;20048;-77
2024/04/05 03:30:32;;;;;;;17.40;4.05;;;;;;;;;;5033185;28;19920;-77
2024/04/05 03:32:58;;;;;;;19.33;3.47;;;;;;;;;;5017192;28;20033;-77
2024/04/05 03:35:24;;;;;;;14.68;3.80;;;;;;;;;;5032717;28;20044;-77
2024/04/05 03:37:53;;;;;;;20.55;4.35;;;;;;;;;;5033219;28;20044;-77
2024/04/05 03:40:20;;;;;;;12.93;3.55;;;;;;;;;;5032740;28;20063;-77
2024/04/05 03:42:46;;;;;;;19.90;4.55;;;;;;;;;;5033157;28;20591;-77
2024/04/05 03:45:12;;;;;;;21.85;4.35;;;;;;;;;;5016735;28;20041;-77
2024/04/05 03:47:37;;;;;;;17.23;3.65;;;;;;;;;;5033112;28;20107;-77
2024/04/05 03:50:04;;;;;;;22.90;3.92;;;;;;;;;;5016724;28;20127;-77
2024/04/05 03:52:30;;;;;;;27.48;4.03;;;;;;;;;;5015957;28;20033;-77
2024/04/05 03:54:55;;;;;;;20.85;4.38;;;;;;;;;;5033132;28;20037;-77
2024/04/05 03:57:21;;;;;;;19.80;4.07;;;;;;;;;;5015910;28;20045;-77
2024/04/05 03:59:48;;;;;;;19.83;4.07;;;;;;;;;;5016339;28;20478;-77
2024/04/05 04:02:14;;;;;;;23.88;4.60;;;;;;;;;;5016369;28;20053;-77
2024/04/05 04:04:39;;;;;;;17.52;3.67;;;;;;;;;;5032880;28;20051;-77
2024/04/05 04:07:05;;;;;;;27.33;5.82;;;;;;;;;;5020019;28;20116;-77
2024/04/05 04:09:31;;;;;;;24.60;5.30;;;;;;;;;;5036547;28;20296;-77
2024/04/05 04:11:57;;;;;;;25.67;4.20;;;;;;;;;;5036596;28;20395;-77
2024/04/05 04:14:23;;;;;;;29.52;5.68;;;;;;;;;;5037894;28;20098;-77
2024/04/05 04:16:50;;;;;;;27.85;4.85;;;;;;;;;;5071490;28;20041;-77
2024/04/05 04:19:16;;;;;;;33.60;5.10;;;;;;;;;;5021271;28;20041;-77
2024/04/05 04:21:42;;;;;;;22.17;5.22;;;;;;;;;;5038467;28;20071;-77
2024/04/05 04:24:09;;;;;;;28.85;4.80;;;;;;;;;;5071330;28;20102;-77
2024/04/05 04:26:36;;;;;;;30.17;4.70;;;;;;;;;;5047352;28;20066;-77
2024/04/05 04:29:03;;;;;;;25.73;5.00;;;;;;;;;;5038697;28;20032;-77
2024/04/05 04:31:29;;;;;;;26.38;4.70;;;;;;;;;;5071993;28;20053;-77
2024/04/05 04:33:55;;;;;;;22.88;4.72;;;;;;;;;;5019970;28;20451;-77
2024/04/05 04:36:22;;;;;;;23.42;4.40;;;;;;;;;;5036116;28;20072;-77
2024/04/05 04:38:49;;;;;;;27.40;5.03;;;;;;;;;;5019933;28;20037;-77
2024/04/05 04:41:16;;;;;;;33.08;5.15;;;;;;;;;;5052413;28;20063;-77
2024/04/05 04:43:43;;;;;;;41.40;6.28;;;;;;;;;;5019643;28;20049;-77
2024/04/05 04:46:11;;;;;;;37.88;5.55;;;;;;;;;;5036727;28;20045;-77
2024/04/05 04:48:37;;;;;;;;;;;;;;;;;;5021646;28;20044;-77
2024/04/05 04:51:03;;;;;;;32.17;5.38;;;;;;;;;;5037913;28;20015;-77
2024/04/05 04:53:29;;;;;;;38.30;6.30;;;;;;;;;;5020469;28;20429;-78
2024/04/05 04:55:55;;;;;;;45.58;7.38;;;;;;;;;;5037459;28;20041;-77
2024/04/05 04:58:23;;;;;;;33.88;6.35;;;;;;;;;;5036826;28;20182;-77
2024/04/05 05:00:51;;;;;;;42.83;7.10;;;;;;;;;;5017305;28;20435;-78
2024/04/05 05:03:17;;;;;;;;;;;;;;;;;;5017696;28;20388;-77
2024/04/05 05:05:43;;;;;;;50.03;7.18;;;;;;;;;;5004075;28;19931;-77
2024/04/05 05:08:12;;;;;;;60.33;8.02;;;;;;;;;;5014332;28;20038;-77
2024/04/05 05:10:42;;;;;;;46.70;6.72;;;;;;;;;;5012454;28;20385;-77
2024/04/05 05:13:14;;;;;;;62.13;9.07;;;;;;;;;;5030717;28;20041;-77
2024/04/05 05:15:41;;;;;;;54.13;8.13;;;;;;;;;;5032111;28;20045;-77
2024/04/05 05:18:08;;;;;;;49.28;7.75;;;;;;;;;;5031399;28;20052;-77
2024/04/05 05:20:34;;;;;;;46.85;6.97;;;;;;;;;;4999668;28;20041;-77
2024/04/05 05:23:01;;;;;;;56.67;8.13;;;;;;;;;;5033811;28;20040;-77
2024/04/05 05:25:26;;;;;;;54.08;8.88;;;;;;;;;;5016566;28;20037;-78
2024/04/05 05:27:52;;;;;;;54.63;8.43;;;;;;;;;;5033349;28;20064;-77
2024/04/05 05:30:18;;;;;;;52.83;7.80;;;;;;;;;;5032636;28;20392;-77
2024/04/05 05:32:44;;;;;;;56.47;7.93;;;;;;;;;;5033282;28;20048;-77
2024/04/05 05:35:10;;;;;;;61.90;7.15;;;;;;;;;;5016363;28;20041;-77
2024/04/05 05:37:36;;;;;;;66.72;7.78;;;;;;;;;;5033576;28;20441;-77
2024/04/05 05:40:04;;;;;;;48.10;7.18;;;;;;;;;;5033228;28;20132;-77
2024/04/05 05:42:30;;;;;;;53.15;7.30;;;;;;;;;;5032936;28;20048;-77
2024/04/05 05:44:56;;;;;;;45.13;6.90;;;;;;;;;;5033246;28;20124;-77
2024/04/05 05:47:21;;;;;;;51.40;7.72;;;;;;;;;;5016657;28;20409;-77
2024/04/05 05:49:54;;;;;;;42.67;6.88;;;;;;;;;;5016492;28;20041;-79
2024/04/05 05:52:20;;;;;;;52.38;7.93;;;;;;;;;;5031949;28;20506;-77
2024/04/05 05:54:46;;;;;;;41.15;6.28;;;;;;;;;;5032440;28;20038;-76
2024/04/05 05:57:11;;;;;;;53.40;7.05;;;;;;;;;;5031873;28;20049;-77
2024/04/05 05:59:37;;;;;;;49.13;7.05;;;;;;;;;;5031513;28;20057;-77
2024/04/05 06:02:04;;;;;;;40.63;7.15;;;;;;;;;;5032556;28;20042;-77
2024/04/05 06:04:30;;;;;;;44.20;8.02;;;;;;;;;;5033347;28;20037;-77
2024/04/05 06:06:56;;;;;;;41.65;7.03;;;;;;;;;;5024613;28;20095;-76
2024/04/05 06:09:22;;;;;;;49.30;6.57;;;;;;;;;;5036235;28;20053;-77
2024/04/05 06:11:49;;;;;;;43.63;6.55;;;;;;;;;;5053878;28;20108;-77
2024/04/05 06:14:15;;;;;;;54.20;7.78;;;;;;;;;;5039703;28;20041;-77
2024/04/05 06:16:41;;;;;;;58.45;7.68;;;;;;;;;;5016659;28;20057;-77
2024/04/05 06:19:07;;;;;;;57.13;6.80;;;;;;;;;;5032672;28;20033;-77
2024/04/05 06:21:33;;;;;;;68.35;7.70;;;;;;;;;;5051736;28;20045;-77
2024/04/05 06:23:59;;;;;;;61.25;6.82;;;;;;;;;;5051844;28;20393;-77
2024/04/05 06:26:25;;;;;;;53.92;7.00;;;;;;;;;;5023321;28;20052;-76
2024/04/05 06:28:51;;;;;;;53.00;6.50;;;;;;;;;;5014984;28;20041;-77
2024/04/05 06:31:17;;;;;;;54.35;6.95;;;;;;;;;;5048286;28;20095;-77
2024/04/05 06:33:44;;;;;;;60.80;6.68;;;;;;;;;;5032166;28;20046;-77
2024/04/05 06:36:10;;;;;;;50.40;6.63;;;;;;;;;;5031856;28;20060;-77
2024/04/05 06:38:36;;;;;;;63.25;7.72;;;;;;;;;;5032303;28;20081;-77
2024/04/05 06:41:02;;;;;;;51.67;6.80;;;;;;;;;;5015752;28;20041;-77
2024/04/05 06:43:29;;;;;;;46.80;7.15;;;;;;;;;;5029206;28;20052;-77
2024/04/05 06:46:00;;;;;;;49.22;6.88;;;;;;;;;;5030107;28;20041;-77
2024/04/05 06:48:26;;;;;;;56.33;7.15;;;;;;;;;;4996520;28;20045;-77
2024/04/05 06:50:52;;;;;;;54.35;6.90;;;;;;;;;;5046330;28;20037;-76
2024/04/05 06:53:20;;;;;;;50.65;7.32;;;;;;;;;;5029317;28;20038;-77
2024/04/05 06:55:47;;;;;;;54.50;7.47;;;;;;;;;;5029903;28;20047;-77
2024/04/05 06:58:13;;;;;;;56.58;7.53;;;;;;;;;;5014560;28;20052;-77
2024/04/05 07:00:41;;;;;;;54.45;7.40;;;;;;;;;;5015388;28;20388;-77
2024/04/05 07:03:06;;;;;;;50.27;6.60;;;;;;;;;;5031482;28;20046;-77
2024/04/05 07:05:32;;;;;;;61.65;7.97;;;;;;;;;;5031940;28;20052;-77
2024/04/05 07:07:59;;;;;;;50.72;7.75;;;;;;;;;;5015309;28;20038;-78
2024/04/05 07:10:25;;;;;;;55.58;8.68;;;;;;;;;;5015142;28;20341;-78
2024/04/05 07:12:52;;;;;;;46.55;7.35;;;;;;;;;;5031616;28;20056;-78
2024/04/05 07:15:20;;;;;;;47.15;6.72;;;;;;;;;;5031357;28;20151;-77
2024/04/05 07:17:52;;;;;;;48.92;8.52;;;;;;;;;;5015202;28;20171;-78
2024/04/05 07:20:18;;;;;;;62.15;7.20;;;;;;;;;;5047877;28;20473;-77
2024/04/05 07:22:45;;;;;;;63.38;8.80;;;;;;;;;;5014989;28;20427;-77
2024/04/05 07:25:12;;;;;;;67.25;9.50;;;;;;;;;;5014631;28;20391;-77
2024/04/05 07:27:37;;;;;;;59.50;7.70;;;;;;;;;;5031478;28;20059;-77
2024/04/05 07:30:04;;;;;;;63.42;9.45;;;;;;;;;;5031313;28;20053;-78
2024/04/05 07:32:31;;;;;;;54.83;7.32;;;;;;;;;;5031068;28;20041;-77
2024/04/05 07:34:56;;;;;;;53.00;7.50;;;;;;;;;;5031463;28;20392;-77
2024/04/05 07:37:22;;;;;;;52.65;7.07;;;;;;;;;;5031010;28;20052;-78
2024/04/05 07:39:51;;;;;;;55.80;7.55;;;;;;;;;;5015114;28;20472;-78
2024/04/05 07:42:19;;;;;;;52.42;6.95;;;;;;;;;;5018660;28;20049;-77
2024/04/05 07:44:46;;;;;;;59.72;7.30;;;;;;;;;;5019037;28;20042;-77
2024/04/05 07:47:13;;;;;;;55.08;7.63;;;;;;;;;;5018506;28;20292;-77
2024/04/05 07:49:39;;;;;;;51.95;7.15;;;;;;;;;;5018884;28;20472;-78
2024/04/05 07:52:05;;;;;;;50.67;7.43;;;;;;;;;;5034767;28;20049;-77
2024/04/05 07:54:31;;;;;;;52.47;8.05;;;;;;;;;;5035464;28;20045;-77
2024/04/05 07:56:57;;;;;;;54.95;8.38;;;;;;;;;;5051944;28;20037;-77
2024/04/05 07:59:23;;;;;;;46.25;7.57;;;;;;;;;;5004808;28;20305;-77
2024/04/05 08:01:49;;;;;;;51.55;6.97;;;;;;;;;;5022154;28;20069;-77
2024/04/05 08:04:15;;;;;;;49.38;6.15;;;;;;;;;;5038122;28;20111;-77
2024/04/05 08:06:41;;;;;;;46.88;5.85;;;;;;;;;;5038223;28;20365;-77
2024/04/05 08:09:07;;;;;;;45.22;6.32;;;;;;;;;;5021304;28;20056;-77
2024/04/05 08:11:33;;;;;;;48.15;6.68;;;;;;;;;;5038271;28;20045;-77
2024/04/05 08:13:59;;;;;;;40.22;5.80;;;;;;;;;;5038211;28;20040;-77
2024/04/05 08:16:26;;;;;;;39.58;5.47;;;;;;;;;;5037816;28;20040;-77
2024/04/05 08:18:54;;;;;;;47.78;6.60;;;;;;;;;;5038144;28;20044;-78
2024/04/05 08:21:20;;;;;;;42.42;5.50;;;;;;;;;;5037527;28;20045;-78
2024/04/05 08:23:46;;;;;;;40.03;5.57;;;;;;;;;;5037976;28;20045;-77
2024/04/05 08:26:12;;;;;;;36.25;5.72;;;;;;;;;;5043582;28;20048;-77
2024/04/05 08:28:38;;;;;;;43.75;6.50;;;;;;;;;;5021192;28;20043;-77
2024/04/05 08:31:04;;;;;;;52.33;6.50;;;;;;;;;;5020753;28;20045;-77
2024/04/05 08:33:30;;;;;;;46.25;6.50;;;;;;;;;;5021341;28;20128;-77
2024/04/05 08:35:57;;;;;;;47.63;6.78;;;;;;;;;;5021132;28;20047;-77
2024/04/05 08:38:22;;;;;;;43.90;6.72;;;;;;;;;;5037296;28;20124;-77
2024/04/05 08:40:48;;;;;;;45.20;6.03;;;;;;;;;;5037560;28;20037;-77
2024/04/05 08:43:17;;;;;;;41.90;6.55;;;;;;;;;;5020571;28;20394;-77
2024/04/05 08:45:44;;;;;;;37.40;7.18;;;;;;;;;;5037652;28;20490;-77
2024/04/05 08:48:11;;;;;;;41.88;6.07;;;;;;;;;;5020659;28;20047;-77
2024/04/05 08:50:37;;;;;;;46.72;5.78;;;;;;;;;;5037818;28;20043;-77
2024/04/05 08:53:05;;;;;;;37.72;6.80;;;;;;;;;;5020454;28;20388;-75
2024/04/05 08:55:30;;;;;;;40.28;6.70;;;;;;;;;;5037090;28;20041;-75
2024/04/05 08:57:59;;;;;;;44.70;6.97;;;;;;;;;;5021025;28;20060;-75
2024/04/05 09:00:24;;;;;;;60.40;7.22;;;;;;;;;;5036753;28;20111;-76
2024/04/05 09:02:52;;;;;;;52.30;7.32;;;;;;;;;;5037301;28;20044;-76
2024/04/05 09:05:19;;;;;;;49.85;7.13;;;;;;;;;;5036704;28;20045;-75
2024/04/05 09:07:49;;;;;;;45.70;7.38;;;;;;;;;;5037312;28;20037;-74
2024/04/05 09:10:19;;;;;;;50.40;7.10;;;;;;;;;;5037353;28;20063;-75
2024/04/05 09:12:50;;;;;;;57.83;7.40;;;;;;;;;;5037300;28;20086;-75
2024/04/05 09:15:21;;;;;;;48.17;7.63;;;;;;;;;;5036473;28;20047;-76
2024/04/05 09:17:49;;;;;;;51.05;6.97;;;;;;;;;;5037166;28;20426;-76
2024/04/05 09:20:24;;;;;;;48.00;7.18;;;;;;;;;;5036560;28;20128;-76
2024/04/05 09:22:58;;;;;;;49.95;6.95;;;;;;;;;;5020316;28;20045;-76
2024/04/05 09:25:24;;;;;;;47.60;6.13;;;;;;;;;;5020313;28;20551;-76
2024/04/05 09:27:50;;;;;;;43.40;7.07;;;;;;;;;;5059271;28;20039;-76
2024/04/05 09:30:16;;;;;;;43.45;5.90;;;;;;;;;;5019792;28;20041;-75
2024/04/05 09:32:48;;;;;;;47.20;5.60;;;;;;;;;;5020146;28;20040;-76
2024/04/05 09:35:18;;;;;;;46.83;7.13;;;;;;;;;;5019713;28;20072;-76
2024/04/05 09:37:48;;;;;;;37.40;5.28;;;;;;;;;;5020186;28;20094;-75
2024/04/05 09:40:16;;;;;;;52.90;6.53;;;;;;;;;;5003201;28;20045;-76
2024/04/05 09:42:43;;;;;;;50.60;6.40;;;;;;;;;;5036516;28;20107;-75
2024/04/05 09:45:09;;;;;;;34.88;6.32;;;;;;;;;;5019640;28;20049;-76
2024/04/05 09:47:36;;;;;;;41.08;6.97;;;;;;;;;;5036371;28;20041;-75
2024/04/05 09:50:02;;;;;;;38.90;5.28;;;;;;;;;;5019843;28;20040;-75
2024/04/05 09:52:36;;;;;;;37.92;6.68;;;;;;;;;;5019343;28;20041;-75
2024/04/05 09:55:05;;;;;;;34.67;6.15;;;;;;;;;;5036633;28;20041;-75
2024/04/05 09:57:31;;;;;;;;;;;;;;;;;;5036604;28;20110;-75
2024/04/05 09:59:57;;;;;;;37.47;5.30;;;;;;;;;;5019918;28;19928;-75
2024/04/05 10:02:25;;;;;;;39.15;5.78;;;;;;;;;;5019200;28;20410;-75
2024/04/05 10:04:51;;;;;;;44.25;6.18;;;;;;;;;;5035869;28;20483;-75
2024/04/05 10:07:25;;;;;;;42.97;6.18;;;;;;;;;;5002699;28;20087;-76
2024/04/05 10:09:52;;;;;;;32.55;5.15;;;;;;;;;;5036366;28;20430;-75
2024/04/05 10:12:21;;;;;;;33.42;5.53;;;;;;;;;;5018893;28;20094;-76
2024/04/05 10:14:54;;;;;;;40.47;6.22;;;;;;;;;;5019452;28;20043;-75
2024/04/05 10:17:26;;;;;;;40.38;5.88;;;;;;;;;;5019052;28;20051;-76
2024/04/05 10:20:05;;;;;;;39.08;6.35;;;;;;;;;;5035990;28;20037;-76
2024/04/05 10:22:31;;;;;;;;;;;;;;;;;;5036105;28;20451;-75
2024/04/05 10:24:56;;;;;;;35.47;5.18;;;;;;;;;;5035803;28;19924;-75
2024/04/05 10:27:24;;;;;;;35.08;5.20;;;;;;;;;;5026820;28;20048;-76
2024/04/05 10:30:17;;;;;;;42.50;6.53;;;;;;;;;;5068654;28;20437;-75
2024/04/05 10:32:43;;;;;;;36.35;6.03;;;;;;;;;;5032196;28;20102;-75
2024/04/05 10:35:09;;;;;;;35.63;5.90;;;;;;;;;;5018737;28;20041;-75
2024/04/05 10:37:39;;;;;;;48.67;7.43;;;;;;;;;;5035511;28;20045;-75
2024/04/05 10:40:10;;;;;;;47.22;6.63;;;;;;;;;;5034950;28;20047;-76
2024/04/05 10:42:37;;;;;;;43.50;7.93;;;;;;;;;;5035444;28;20047;-76
2024/04/05 10:45:05;;;;;;;43.15;6.88;;;;;;;;;;5035552;28;20049;-76
2024/04/05 10:47:35;;;;;;;31.50;6.30;;;;;;;;;;5035085;28;20037;-76
2024/04/05 10:50:06;;;;;;;42.00;7.38;;;;;;;;;;5018740;28;20037;-75
2024/04/05 10:52:36;;;;;;;43.80;6.82;;;;;;;;;;5018357;28;20464;-76
2024/04/05 10:55:12;;;;;;;51.25;6.80;;;;;;;;;;5035216;28;20045;-74
2024/04/05 10:57:38;;;;;;;44.20;6.70;;;;;;;;;;5018589;28;20048;-75
2024/04/05 11:00:05;;;;;;;44.03;7.30;;;;;;;;;;5034892;28;20044;-75
2024/04/05 11:02:32;;;;;;;42.97;7.28;;;;;;;;;;5034800;28;20467;-75
2024/04/05 11:05:06;;;;;;;50.20;6.43;;;;;;;;;;5035218;28;20037;-76
2024/04/05 11:07:33;;;;;;;46.13;7.55;;;;;;;;;;5034993;28;20037;-76
2024/04/05 11:09:59;;;;;;;43.97;7.45;;;;;;;;;;5035077;28;20364;-74
2024/04/05 11:12:25;;;;;;;49.63;7.05;;;;;;;;;;5018372;28;20041;-75
2024/04/05 11:15:02;;;;;;;50.67;7.18;;;;;;;;;;5034315;28;20037;-76
2024/04/05 11:17:28;;;;;;;47.60;7.43;;;;;;;;;;5018067;28;20037;-75
2024/04/05 11:20:05;;;;;;;52.63;8.23;;;;;;;;;;5018291;28;20398;-75
2024/04/05 11:22:30;;;;;;;51.20;7.45;;;;;;;;;;5018154;28;20059;-75
2024/04/05 11:24:56;;;;;;;37.60;5.82;;;;;;;;;;5018491;28;20045;-75
2024/04/05 11:27:22;;;;;;;58.70;7.07;;;;;;;;;;5042851;28;20070;-76
2024/04/05 11:29:48;;;;;;;43.75;6.50;;;;;;;;;;5034841;28;20045;-76
2024/04/05 11:32:33;;;;;;;44.65;7.30;;;;;;;;;;5034172;28;20049;-76
2024/04/05 11:35:03;;;;;;;46.03;7.00;;;;;;;;;;5018407;28;20055;-76
2024/04/05 11:37:29;;;;;;;50.13;7.28;;;;;;;;;;5034698;28;20492;-75
2024/04/05 11:39:57;;;;;;;42.90;6.70;;;;;;;;;;5018304;28;20490;-75
2024/04/05 11:42:23;;;;;;;45.97;6.53;;;;;;;;;;5034143;28;20471;-75
2024/04/05 11:44:49;;;;;;;40.85;6.68;;;;;;;;;;5018342;28;20056;-76
2024/04/05 11:47:20;;;;;;;47.42;6.90;;;;;;;;;;5034242;28;20045;-75
2024/04/05 11:49:46;;;;;;;45.85;6.95;;;;;;;;;;5034735;28;20041;-76
2024/04/05 11:52:12;;;;;;;43.03;6.00;;;;;;;;;;5017342;28;21083;-75
2024/04/05 11:54:39;;;;;;;49.38;7.22;;;;;;;;;;5051275;28;20037;-75
2024/04/05 11:57:04;;;;;;;43.40;6.35;;;;;;;;;;5018039;28;20049;-75
2024/04/05 11:59:30;;;;;;;48.97;6.90;;;;;;;;;;5034465;28;20059;-75
2024/04/05 12:01:56;;;;;;;35.90;6.05;;;;;;;;;;5034620;28;20037;-75
2024/04/05 12:04:23;;;;;;;44.10;6.60;;;;;;;;;;5017914;28;20495;-75
2024/04/05 12:06:50;;;;;;;49.80;6.38;;;;;;;;;;5018037;28;20041;-76
2024/04/05 12:09:17;;;;;;;36.67;5.70;;;;;;;;;;5034077;28;20107;-75
2024/04/05 12:11:44;;;;;;;43.05;5.65;;;;;;;;;;5034562;28;20037;-75
2024/04/05 12:14:09;;;;;;;38.22;6.03;;;;;;;;;;5017626;28;20037;-75
2024/04/05 12:16:35;;;;;;;42.72;7.22;;;;;;;;;;5017870;28;20087;-75
2024/04/05 12:19:01;;;;;;;48.50;6.75;;;;;;;;;;5017936;28;20037;-75
2024/04/05 12:21:27;;;;;;;32.85;5.13;;;;;;;;;;5017614;28;20032;-75
2024/04/05 12:23:53;;;;;;;38.80;6.53;;;;;;;;;;5034340;28;20045;-75
2024/04/05 12:26:19;;;;;;;45.45;6.97;;;;;;;;;;5041635;28;20475;-75
2024/04/05 12:28:46;;;;;;;44.63;7.00;;;;;;;;;;5021114;28;20037;-75
2024/04/05 12:31:12;;;;;;;44.70;6.07;;;;;;;;;;5037129;28;20045;-76
2024/04/05 12:33:41;;;;;;;43.20;6.15;;;;;;;;;;5021490;28;20047;-75
2024/04/05 12:36:07;;;;;;;;;;;;;;;;;;5037550;28;20059;-76
2024/04/05 12:38:38;;;;;;;43.80;5.75;;;;;;;;;;5021328;28;19920;-75
2024/04/05 12:41:08;;;;;;;43.67;5.95;;;;;;;;;;5020882;28;20037;-75
2024/04/05 12:43:34;;;;;;;35.38;5.55;;;;;;;;;;5021196;28;20383;-76
2024/04/05 12:46:04;;;;;;;44.25;5.43;;;;;;;;;;5037539;28;20045;-76
2024/04/05 12:48:30;;;;;;;41.85;5.90;;;;;;;;;;5037397;28;20434;-76
2024/04/05 12:51:00;;;;;;;36.88;5.85;;;;;;;;;;5037637;28;20394;-75
2024/04/05 12:53:27;;;;;;;37.65;5.63;;;;;;;;;;5020133;28;20048;-76
2024/04/05 12:55:57;;;;;;;40.13;6.63;;;;;;;;;;5020841;28;20051;-75
2024/04/05 12:58:30;;;;;;;39.67;5.43;;;;;;;;;;5036919;28;20048;-76
2024/04/05 13:00:58;;;;;;;42.60;6.00;;;;;;;;;;5037046;28;20045;-75
2024/04/05 13:03:24;;;;;;;43.92;5.25;;;;;;;;;;5036746;28;20049;-76
2024/04/05 13:05:51;;;;;;;35.20;5.70;;;;;;;;;;5020834;28;20041;-75
2024/04/05 13:08:18;;;;;;;37.97;5.35;;;;;;;;;;5036691;28;20474;-76
2024/04/05 13:10:45;;;;;;;32.88;5.78;;;;;;;;;;5037187;28;20041;-74
2024/04/05 13:13:11;;;;;;;32.28;5.00;;;;;;;;;;5036766;28;20086;-75
2024/04/05 13:15:37;;;;;;;39.22;5.45;;;;;;;;;;5020894;28;20040;-75
2024/04/05 13:18:03;;;;;;;41.38;5.40;;;;;;;;;;5037222;28;20128;-75
2024/04/05 13:20:29;;;;;;;32.80;5.60;;;;;;;;;;5036916;28;20051;-76
2024/04/05 13:22:55;;;;;;;33.45;4.97;;;;;;;;;;5036680;28;20041;-75
2024/04/05 13:25:21;;;;;;;38.78;5.80;;;;;;;;;;5036301;28;20037;-76
2024/04/05 13:27:48;;;;;;;39.97;5.53;;;;;;;;;;5042906;28;20037;-75
2024/04/05 13:30:14;;;;;;;32.97;5.35;;;;;;;;;;5019746;28;20037;-75
2024/04/05 13:32:41;;;;;;;41.97;7.35;;;;;;;;;;5036681;28;20283;-76
2024/04/05 13:35:07;;;;;;;29.50;5.28;;;;;;;;;;5020118;28;20045;-76
2024/04/05 13:37:33;;;;;;;35.53;6.80;;;;;;;;;;5036416;28;20052;-75
2024/04/05 13:39:59;;;;;;;27.98;4.30;;;;;;;;;;5036364;28;20490;-76
2024/04/05 13:42:25;;;;;;;31.35;4.65;;;;;;;;;;5019736;28;20036;-75
2024/04/05 13:44:52;;;;;;;31.10;4.32;;;;;;;;;;5036591;28;20402;-76
2024/04/05 13:47:21;;;;;;;26.48;5.00;;;;;;;;;;5036119;28;20391;-76
2024/04/05 13:49:49;;;;;;;30.92;4.70;;;;;;;;;;5019884;28;20045;-75
2024/04/05 13:52:15;;;;;;;32.92;4.90;;;;;;;;;;5036077;28;20067;-75
2024/04/05 13:54:41;;;;;;;26.13;4.55;;;;;;;;;;5019966;28;20040;-76
2024/04/05 13:57:07;;;;;;;33.50;5.10;;;;;;;;;;5036078;28;20398;-75
2024/04/05 13:59:33;;;;;;;23.02;4.13;;;;;;;;;;5036109;28;20040;-76
2024/04/05 14:01:58;;;;;;;23.40;3.85;;;;;;;;;;5019769;28;20393;-74
2024/04/05 14:04:25;;;;;;;20.73;3.58;;;;;;;;;;5035759;28;20049;-74
2024/04/05 14:06:52;;;;;;;27.23;3.90;;;;;;;;;;5036127;28;20332;-75
2024/04/05 14:09:18;;;;;;;21.67;3.83;;;;;;;;;;5019030;28;20403;-75
2024/04/05 14:11:44;;;;;;;25.80;4.65;;;;;;;;;;5035886;28;20044;-75
2024/04/05 14:14:09;;;;;;;25.20;3.85;;;;;;;;;;5018943;28;20067;-75
2024/04/05 14:16:35;;;;;;;21.20;3.42;;;;;;;;;;5035964;28;20037;-75
2024/04/05 14:19:02;;;;;;;18.25;3.58;;;;;;;;;;5035846;28;20045;-75
2024/04/05 14:21:28;;;;;;;23.80;3.20;;;;;;;;;;5019207;28;20036;-75
2024/04/05 14:23:54;;;;;;;17.48;3.22;;;;;;;;;;5002957;28;20124;-75
2024/04/05 14:26:20;;;;;;;19.25;3.10;;;;;;;;;;5042374;28;20171;-75
2024/04/05 14:28:46;;;;;;;18.00;4.10;;;;;;;;;;5019142;28;20036;-75